sensor_id;sensor_type;location;lat;lon;timestamp;temperature;humidity
24402;DHT22;12539;48.808;11.292;2023-05-10T00:02:11;16.10;85.60
24402;DHT22;12539;48.808;11.292;2023-05-10T00:04:37;16.10;85.80
24402;DHT22;12539;48.808;11.292;2023-05-10T00:07:03;16.10;86.20
24402;DHT22;12539;48.808;11.292;2023-05-10T00:09:28;16.10;86.20
24402;DHT22;12539;48.808;11.292;2023-05-10T00:11:54;16.10;88.50
24402;DHT22;12539;48.808;11.292;2023-05-10T00:14:20;16.00;88.00
24402;DHT22;12539;48.808;11.292;2023-05-10T00:16:45;16.00;88.30
24402;DHT22;12539;48.808;11.292;2023-05-10T00:19:11;16.00;88.90
24402;DHT22;12539;48.808;11.292;2023-05-10T00:21:37;16.10;89.50
24402;DHT22;12539;48.808;11.292;2023-05-10T00:24:02;16.00;90.90
24402;DHT22;12539;48.808;11.292;2023-05-10T00:26:28;16.00;91.80
24402;DHT22;12539;48.808;11.292;2023-05-10T00:28:54;15.90;92.60
24402;DHT22;12539;48.808;11.292;2023-05-10T00:31:20;15.90;92.50
24402;DHT22;12539;48.808;11.292;2023-05-10T00:33:45;15.90;93.30
24402;DHT22;12539;48.808;11.292;2023-05-10T00:36:11;15.90;93.40
24402;DHT22;12539;48.808;11.292;2023-05-10T00:38:37;15.90;93.50
24402;DHT22;12539;48.808;11.292;2023-05-10T00:41:03;15.90;93.60
24402;DHT22;12539;48.808;11.292;2023-05-10T00:43:29;15.90;94.80
24402;DHT22;12539;48.808;11.292;2023-05-10T00:45:55;15.80;94.60
24402;DHT22;12539;48.808;11.292;2023-05-10T00:48:21;15.80;94.80
24402;DHT22;12539;48.808;11.292;2023-05-10T00:50:47;15.80;95.00
24402;DHT22;12539;48.808;11.292;2023-05-10T00:53:14;15.80;95.40
24402;DHT22;12539;48.808;11.292;2023-05-10T00:55:40;15.80;95.40
24402;DHT22;12539;48.808;11.292;2023-05-10T00:58:05;15.80;95.30
24402;DHT22;12539;48.808;11.292;2023-05-10T01:00:33;15.80;95.60
24402;DHT22;12539;48.808;11.292;2023-05-10T01:02:59;15.80;96.20
24402;DHT22;12539;48.808;11.292;2023-05-10T01:05:25;15.70;96.90
24402;DHT22;12539;48.808;11.292;2023-05-10T01:07:52;15.70;96.80
24402;DHT22;12539;48.808;11.292;2023-05-10T01:10:18;15.70;96.70
24402;DHT22;12539;48.808;11.292;2023-05-10T01:12:46;15.70;96.90
24402;DHT22;12539;48.808;11.292;2023-05-10T01:15:12;15.70;96.90
24402;DHT22;12539;48.808;11.292;2023-05-10T01:17:40;15.70;97.00
24402;DHT22;12539;48.808;11.292;2023-05-10T01:20:09;15.70;96.80
24402;DHT22;12539;48.808;11.292;2023-05-10T01:31:14;15.80;96.60
24402;DHT22;12539;48.808;11.292;2023-05-10T01:33:59;15.80;96.60
24402;DHT22;12539;48.808;11.292;2023-05-10T01:36:43;15.80;97.00
24402;DHT22;12539;48.808;11.292;2023-05-10T01:39:28;15.80;97.10
24402;DHT22;12539;48.808;11.292;2023-05-10T01:50:03;15.80;97.20
24402;DHT22;12539;48.808;11.292;2023-05-10T01:52:37;15.80;97.20
24402;DHT22;12539;48.808;11.292;2023-05-10T01:55:09;15.80;97.10
24402;DHT22;12539;48.808;11.292;2023-05-10T01:57:37;15.80;97.60
24402;DHT22;12539;48.808;11.292;2023-05-10T02:00:08;15.80;97.30
24402;DHT22;12539;48.808;11.292;2023-05-10T02:02:39;15.80;97.30
24402;DHT22;12539;48.808;11.292;2023-05-10T02:05:06;15.80;97.20
24402;DHT22;12539;48.808;11.292;2023-05-10T02:07:37;15.80;97.30
24402;DHT22;12539;48.808;11.292;2023-05-10T02:10:05;15.90;97.30
24402;DHT22;12539;48.808;11.292;2023-05-10T02:12:33;15.90;97.20
24402;DHT22;12539;48.808;11.292;2023-05-10T02:15:02;15.90;97.30
24402;DHT22;12539;48.808;11.292;2023-05-10T02:17:31;15.90;97.60
24402;DHT22;12539;48.808;11.292;2023-05-10T02:19:59;15.90;97.40
24402;DHT22;12539;48.808;11.292;2023-05-10T02:22:27;15.90;97.30
24402;DHT22;12539;48.808;11.292;2023-05-10T02:24:54;15.80;97.20
24402;DHT22;12539;48.808;11.292;2023-05-10T02:27:22;15.90;97.20
24402;DHT22;12539;48.808;11.292;2023-05-10T02:29:50;15.80;97.50
24402;DHT22;12539;48.808;11.292;2023-05-10T02:32:17;15.80;97.40
24402;DHT22;12539;48.808;11.292;2023-05-10T02:34:44;15.80;97.70
24402;DHT22;12539;48.808;11.292;2023-05-10T02:37:13;15.80;98.00
24402;DHT22;12539;48.808;11.292;2023-05-10T02:39:40;15.70;98.70
24402;DHT22;12539;48.808;11.292;2023-05-10T02:42:14;15.60;98.70
24402;DHT22;12539;48.808;11.292;2023-05-10T02:44:42;15.70;98.80
24402;DHT22;12539;48.808;11.292;2023-05-10T02:47:08;15.60;98.80
24402;DHT22;12539;48.808;11.292;2023-05-10T02:49:34;15.60;98.90
24402;DHT22;12539;48.808;11.292;2023-05-10T02:52:01;15.60;98.90
24402;DHT22;12539;48.808;11.292;2023-05-10T02:54:33;15.70;98.80
24402;DHT22;12539;48.808;11.292;2023-05-10T02:57:03;15.70;98.80
24402;DHT22;12539;48.808;11.292;2023-05-10T02:59:31;15.70;98.70
24402;DHT22;12539;48.808;11.292;2023-05-10T03:01:59;15.70;99.00
24402;DHT22;12539;48.808;11.292;2023-05-10T03:04:25;15.70;99.00
24402;DHT22;12539;48.808;11.292;2023-05-10T03:06:51;15.60;99.00
24402;DHT22;12539;48.808;11.292;2023-05-10T03:09:17;15.60;99.00
24402;DHT22;12539;48.808;11.292;2023-05-10T03:14:31;15.60;99.30
24402;DHT22;12539;48.808;11.292;2023-05-10T03:20:06;15.60;99.20
24402;DHT22;12539;48.808;11.292;2023-05-10T03:22:37;15.60;99.20
24402;DHT22;12539;48.808;11.292;2023-05-10T03:25:08;15.60;99.40
24402;DHT22;12539;48.808;11.292;2023-05-10T03:27:37;15.60;99.40
24402;DHT22;12539;48.808;11.292;2023-05-10T03:30:05;15.50;99.30
24402;DHT22;12539;48.808;11.292;2023-05-10T03:32:33;15.50;99.30
24402;DHT22;12539;48.808;11.292;2023-05-10T03:35:00;15.40;99.60
24402;DHT22;12539;48.808;11.292;2023-05-10T03:37:25;15.30;99.70
24402;DHT22;12539;48.808;11.292;2023-05-10T03:39:51;15.20;99.80
24402;DHT22;12539;48.808;11.292;2023-05-10T03:42:17;15.20;99.90
24402;DHT22;12539;48.808;11.292;2023-05-10T03:44:43;15.20;99.90
24402;DHT22;12539;48.808;11.292;2023-05-10T03:47:08;15.20;99.90
24402;DHT22;12539;48.808;11.292;2023-05-10T03:49:34;15.20;99.90
24402;DHT22;12539;48.808;11.292;2023-05-10T03:52:00;15.10;99.90
24402;DHT22;12539;48.808;11.292;2023-05-10T03:54:26;15.10;99.90
24402;DHT22;12539;48.808;11.292;2023-05-10T03:56:52;15.10;99.90
24402;DHT22;12539;48.808;11.292;2023-05-10T03:59:17;15.10;99.90
24402;DHT22;12539;48.808;11.292;2023-05-10T04:01:43;15.10;99.90
24402;DHT22;12539;48.808;11.292;2023-05-10T04:04:09;15.10;99.90
24402;DHT22;12539;48.808;11.292;2023-05-10T04:06:34;15.10;99.90
24402;DHT22;12539;48.808;11.292;2023-05-10T04:09:00;15.10;99.90
24402;DHT22;12539;48.808;11.292;2023-05-10T04:11:29;15.10;99.90
24402;DHT22;12539;48.808;11.292;2023-05-10T04:13:55;15.10;99.90
24402;DHT22;12539;48.808;11.292;2023-05-10T04:16:21;15.10;99.90
24402;DHT22;12539;48.808;11.292;2023-05-10T04:18:46;15.10;99.90
24402;DHT22;12539;48.808;11.292;2023-05-10T04:21:12;15.10;99.90
24402;DHT22;12539;48.808;11.292;2023-05-10T04:23:39;15.10;99.90
24402;DHT22;12539;48.808;11.292;2023-05-10T04:26:05;15.10;99.90
24402;DHT22;12539;48.808;11.292;2023-05-10T04:28:31;15.10;99.90
24402;DHT22;12539;48.808;11.292;2023-05-10T04:31:04;15.10;99.90
24402;DHT22;12539;48.808;11.292;2023-05-10T04:33:30;15.10;99.90
24402;DHT22;12539;48.808;11.292;2023-05-10T04:35:55;15.20;99.90
24402;DHT22;12539;48.808;11.292;2023-05-10T04:38:21;15.10;99.90
24402;DHT22;12539;48.808;11.292;2023-05-10T04:40:47;15.20;99.90
24402;DHT22;12539;48.808;11.292;2023-05-10T04:43:12;15.20;99.90
24402;DHT22;12539;48.808;11.292;2023-05-10T04:45:38;15.20;99.90
24402;DHT22;12539;48.808;11.292;2023-05-10T04:48:04;15.20;99.90
24402;DHT22;12539;48.808;11.292;2023-05-10T04:50:30;15.20;99.90
24402;DHT22;12539;48.808;11.292;2023-05-10T04:52:55;15.20;99.90
24402;DHT22;12539;48.808;11.292;2023-05-10T04:55:21;15.20;99.90
24402;DHT22;12539;48.808;11.292;2023-05-10T04:57:47;15.30;99.90
24402;DHT22;12539;48.808;11.292;2023-05-10T05:00:13;15.30;99.90
24402;DHT22;12539;48.808;11.292;2023-05-10T05:02:42;15.30;99.90
24402;DHT22;12539;48.808;11.292;2023-05-10T05:05:09;15.30;99.90
24402;DHT22;12539;48.808;11.292;2023-05-10T05:07:35;15.40;99.90
24402;DHT22;12539;48.808;11.292;2023-05-10T05:10:01;15.40;99.90
24402;DHT22;12539;48.808;11.292;2023-05-10T05:12:26;15.30;99.90
24402;DHT22;12539;48.808;11.292;2023-05-10T05:14:52;15.30;99.90
24402;DHT22;12539;48.808;11.292;2023-05-10T05:17:18;15.30;99.90
24402;DHT22;12539;48.808;11.292;2023-05-10T05:19:43;15.20;99.90
24402;DHT22;12539;48.808;11.292;2023-05-10T05:22:09;15.20;99.90
24402;DHT22;12539;48.808;11.292;2023-05-10T05:24:35;15.30;99.90
24402;DHT22;12539;48.808;11.292;2023-05-10T05:27:03;15.30;99.90
24402;DHT22;12539;48.808;11.292;2023-05-10T05:29:29;15.30;99.90
24402;DHT22;12539;48.808;11.292;2023-05-10T05:31:55;15.30;99.90
24402;DHT22;12539;48.808;11.292;2023-05-10T05:34:20;15.20;99.90
24402;DHT22;12539;48.808;11.292;2023-05-10T05:36:47;15.10;99.90
24402;DHT22;12539;48.808;11.292;2023-05-10T05:39:13;15.10;99.90
24402;DHT22;12539;48.808;11.292;2023-05-10T05:41:38;15.00;99.90
24402;DHT22;12539;48.808;11.292;2023-05-10T05:44:04;15.00;99.90
24402;DHT22;12539;48.808;11.292;2023-05-10T05:46:30;14.90;99.90
24402;DHT22;12539;48.808;11.292;2023-05-10T05:48:56;15.00;99.90
24402;DHT22;12539;48.808;11.292;2023-05-10T05:51:22;15.00;99.90
24402;DHT22;12539;48.808;11.292;2023-05-10T05:53:47;15.00;99.90
24402;DHT22;12539;48.808;11.292;2023-05-10T05:56:13;15.00;99.90
24402;DHT22;12539;48.808;11.292;2023-05-10T05:58:39;15.00;99.90
24402;DHT22;12539;48.808;11.292;2023-05-10T06:01:05;15.00;99.90
24402;DHT22;12539;48.808;11.292;2023-05-10T06:03:30;15.10;99.90
24402;DHT22;12539;48.808;11.292;2023-05-10T06:05:56;15.10;99.90
24402;DHT22;12539;48.808;11.292;2023-05-10T06:08:22;15.30;99.90
24402;DHT22;12539;48.808;11.292;2023-05-10T06:10:47;15.40;99.90
24402;DHT22;12539;48.808;11.292;2023-05-10T06:13:13;15.50;99.90
24402;DHT22;12539;48.808;11.292;2023-05-10T06:15:39;15.60;99.90
24402;DHT22;12539;48.808;11.292;2023-05-10T06:18:05;15.70;99.90
24402;DHT22;12539;48.808;11.292;2023-05-10T06:20:31;15.80;99.90
24402;DHT22;12539;48.808;11.292;2023-05-10T06:22:57;15.80;99.90
24402;DHT22;12539;48.808;11.292;2023-05-10T06:25:23;15.90;99.90
24402;DHT22;12539;48.808;11.292;2023-05-10T06:27:49;16.00;99.90
24402;DHT22;12539;48.808;11.292;2023-05-10T06:30:15;16.00;99.90
24402;DHT22;12539;48.808;11.292;2023-05-10T06:32:41;16.10;99.90
24402;DHT22;12539;48.808;11.292;2023-05-10T06:35:12;16.20;99.90
24402;DHT22;12539;48.808;11.292;2023-05-10T06:37:38;16.30;99.50
24402;DHT22;12539;48.808;11.292;2023-05-10T06:40:05;16.30;99.40
24402;DHT22;12539;48.808;11.292;2023-05-10T06:42:31;16.50;99.20
24402;DHT22;12539;48.808;11.292;2023-05-10T06:44:56;16.60;98.70
24402;DHT22;12539;48.808;11.292;2023-05-10T06:47:22;16.60;98.20
24402;DHT22;12539;48.808;11.292;2023-05-10T06:49:48;16.70;98.10
24402;DHT22;12539;48.808;11.292;2023-05-10T06:52:13;16.70;97.90
24402;DHT22;12539;48.808;11.292;2023-05-10T06:54:39;16.70;97.80
24402;DHT22;12539;48.808;11.292;2023-05-10T06:57:05;16.60;97.60
24402;DHT22;12539;48.808;11.292;2023-05-10T06:59:31;16.60;97.60
24402;DHT22;12539;48.808;11.292;2023-05-10T07:01:56;16.50;97.50
24402;DHT22;12539;48.808;11.292;2023-05-10T07:04:22;16.60;97.80
24402;DHT22;12539;48.808;11.292;2023-05-10T07:06:48;16.70;98.00
24402;DHT22;12539;48.808;11.292;2023-05-10T07:09:15;17.00;97.80
24402;DHT22;12539;48.808;11.292;2023-05-10T07:11:41;17.20;97.60
24402;DHT22;12539;48.808;11.292;2023-05-10T07:14:06;17.50;97.30
24402;DHT22;12539;48.808;11.292;2023-05-10T07:16:32;17.70;96.50
24402;DHT22;12539;48.808;11.292;2023-05-10T07:18:58;17.80;96.30
24402;DHT22;12539;48.808;11.292;2023-05-10T07:21:23;17.90;95.90
24402;DHT22;12539;48.808;11.292;2023-05-10T07:23:49;18.00;95.60
24402;DHT22;12539;48.808;11.292;2023-05-10T07:26:15;18.20;95.10
24402;DHT22;12539;48.808;11.292;2023-05-10T07:28:42;18.20;94.10
24402;DHT22;12539;48.808;11.292;2023-05-10T07:31:07;18.20;93.80
24402;DHT22;12539;48.808;11.292;2023-05-10T07:33:33;18.20;93.70
24402;DHT22;12539;48.808;11.292;2023-05-10T07:35:59;18.30;93.50
24402;DHT22;12539;48.808;11.292;2023-05-10T07:38:25;18.50;93.10
24402;DHT22;12539;48.808;11.292;2023-05-10T07:40:51;18.50;92.70
24402;DHT22;12539;48.808;11.292;2023-05-10T07:43:17;18.60;92.60
24402;DHT22;12539;48.808;11.292;2023-05-10T07:45:42;18.60;92.30
24402;DHT22;12539;48.808;11.292;2023-05-10T07:48:08;18.70;92.20
24402;DHT22;12539;48.808;11.292;2023-05-10T07:50:34;18.80;91.80
24402;DHT22;12539;48.808;11.292;2023-05-10T07:52:59;18.90;91.50
24402;DHT22;12539;48.808;11.292;2023-05-10T07:55:25;18.90;91.10
24402;DHT22;12539;48.808;11.292;2023-05-10T07:57:51;19.00;90.80
24402;DHT22;12539;48.808;11.292;2023-05-10T08:00:18;18.90;90.50
24402;DHT22;12539;48.808;11.292;2023-05-10T08:02:44;18.70;90.10
24402;DHT22;12539;48.808;11.292;2023-05-10T08:05:10;18.60;90.20
24402;DHT22;12539;48.808;11.292;2023-05-10T08:07:36;18.50;90.20
24402;DHT22;12539;48.808;11.292;2023-05-10T08:10:02;18.30;90.20
24402;DHT22;12539;48.808;11.292;2023-05-10T08:12:28;18.20;90.20
24402;DHT22;12539;48.808;11.292;2023-05-10T08:14:54;18.20;90.60
24402;DHT22;12539;48.808;11.292;2023-05-10T08:17:19;18.30;90.70
24402;DHT22;12539;48.808;11.292;2023-05-10T08:19:45;18.40;90.70
24402;DHT22;12539;48.808;11.292;2023-05-10T08:22:11;18.60;90.30
24402;DHT22;12539;48.808;11.292;2023-05-10T08:24:36;18.70;89.50
24402;DHT22;12539;48.808;11.292;2023-05-10T08:27:05;18.90;89.20
24402;DHT22;12539;48.808;11.292;2023-05-10T08:29:31;19.10;89.50
24402;DHT22;12539;48.808;11.292;2023-05-10T08:31:56;19.20;87.50
24402;DHT22;12539;48.808;11.292;2023-05-10T08:34:22;19.20;86.60
24402;DHT22;12539;48.808;11.292;2023-05-10T08:36:48;19.20;86.70
24402;DHT22;12539;48.808;11.292;2023-05-10T08:39:13;19.10;86.20
24402;DHT22;12539;48.808;11.292;2023-05-10T08:41:39;19.00;85.50
24402;DHT22;12539;48.808;11.292;2023-05-10T08:44:09;18.80;85.40
24402;DHT22;12539;48.808;11.292;2023-05-10T08:46:37;18.60;85.70
24402;DHT22;12539;48.808;11.292;2023-05-10T08:49:06;18.50;86.30
24402;DHT22;12539;48.808;11.292;2023-05-10T08:51:36;18.50;86.10
24402;DHT22;12539;48.808;11.292;2023-05-10T08:54:03;18.50;85.80
24402;DHT22;12539;48.808;11.292;2023-05-10T08:56:29;18.60;85.60
24402;DHT22;12539;48.808;11.292;2023-05-10T08:58:55;18.60;85.10
24402;DHT22;12539;48.808;11.292;2023-05-10T09:01:21;18.70;84.60
24402;DHT22;12539;48.808;11.292;2023-05-10T09:03:47;18.90;84.90
24402;DHT22;12539;48.808;11.292;2023-05-10T09:06:13;19.20;84.80
24402;DHT22;12539;48.808;11.292;2023-05-10T09:08:41;19.40;84.00
24402;DHT22;12539;48.808;11.292;2023-05-10T09:11:08;19.70;83.00
24402;DHT22;12539;48.808;11.292;2023-05-10T09:13:35;20.00;81.60
24402;DHT22;12539;48.808;11.292;2023-05-10T09:16:02;20.20;80.10
24402;DHT22;12539;48.808;11.292;2023-05-10T09:18:28;20.30;79.50
24402;DHT22;12539;48.808;11.292;2023-05-10T09:20:54;20.40;78.80
24402;DHT22;12539;48.808;11.292;2023-05-10T09:23:20;20.50;77.20
24402;DHT22;12539;48.808;11.292;2023-05-10T09:25:46;20.60;76.10
24402;DHT22;12539;48.808;11.292;2023-05-10T09:28:12;20.70;75.10
24402;DHT22;12539;48.808;11.292;2023-05-10T09:30:38;20.70;74.80
24402;DHT22;12539;48.808;11.292;2023-05-10T09:33:04;20.70;75.10
24402;DHT22;12539;48.808;11.292;2023-05-10T09:35:32;20.80;75.10
24402;DHT22;12539;48.808;11.292;2023-05-10T09:38:04;20.90;74.80
24402;DHT22;12539;48.808;11.292;2023-05-10T09:40:30;21.00;74.60
24402;DHT22;12539;48.808;11.292;2023-05-10T09:43:09;21.00;74.00
24402;DHT22;12539;48.808;11.292;2023-05-10T09:45:36;21.10;72.90
24402;DHT22;12539;48.808;11.292;2023-05-10T09:48:02;21.20;72.90
24402;DHT22;12539;48.808;11.292;2023-05-10T09:50:29;21.20;72.50
24402;DHT22;12539;48.808;11.292;2023-05-10T09:53:00;21.30;72.40
24402;DHT22;12539;48.808;11.292;2023-05-10T09:55:40;21.40;71.40
24402;DHT22;12539;48.808;11.292;2023-05-10T09:58:06;21.50;70.90
24402;DHT22;12539;48.808;11.292;2023-05-10T10:00:45;21.40;70.40
24402;DHT22;12539;48.808;11.292;2023-05-10T10:03:18;21.50;70.40
24402;DHT22;12539;48.808;11.292;2023-05-10T10:05:44;21.40;70.00
24402;DHT22;12539;48.808;11.292;2023-05-10T10:08:12;21.40;70.50
24402;DHT22;12539;48.808;11.292;2023-05-10T10:10:38;21.40;70.00
24402;DHT22;12539;48.808;11.292;2023-05-10T10:13:07;21.40;69.40
24402;DHT22;12539;48.808;11.292;2023-05-10T10:15:34;21.40;69.20
24402;DHT22;12539;48.808;11.292;2023-05-10T10:18:00;21.30;69.50
24402;DHT22;12539;48.808;11.292;2023-05-10T10:20:26;21.20;69.60
24402;DHT22;12539;48.808;11.292;2023-05-10T10:22:52;21.00;69.90
24402;DHT22;12539;48.808;11.292;2023-05-10T10:25:19;20.80;70.40
24402;DHT22;12539;48.808;11.292;2023-05-10T10:27:59;20.60;70.60
24402;DHT22;12539;48.808;11.292;2023-05-10T10:30:49;20.50;71.10
24402;DHT22;12539;48.808;11.292;2023-05-10T10:33:49;20.50;71.60
24402;DHT22;12539;48.808;11.292;2023-05-10T10:36:17;20.60;71.30
24402;DHT22;12539;48.808;11.292;2023-05-10T10:41:27;20.80;70.90
24402;DHT22;12539;48.808;11.292;2023-05-10T10:52:31;20.90;69.30
24402;DHT22;12539;48.808;11.292;2023-05-10T11:07:56;21.00;68.60
24402;DHT22;12539;48.808;11.292;2023-05-10T11:10:23;21.00;68.00
24402;DHT22;12539;48.808;11.292;2023-05-10T11:13:09;20.90;67.90
24402;DHT22;12539;48.808;11.292;2023-05-10T11:15:37;20.80;67.60
24402;DHT22;12539;48.808;11.292;2023-05-10T11:18:26;20.50;68.00
24402;DHT22;12539;48.808;11.292;2023-05-10T11:21:00;20.10;69.80
24402;DHT22;12539;48.808;11.292;2023-05-10T11:26:07;19.30;71.80
24402;DHT22;12539;48.808;11.292;2023-05-10T11:28:47;19.00;72.10
24402;DHT22;12539;48.808;11.292;2023-05-10T11:31:14;18.80;74.00
24402;DHT22;12539;48.808;11.292;2023-05-10T11:33:59;18.70;73.90
24402;DHT22;12539;48.808;11.292;2023-05-10T11:36:34;18.60;74.60
24402;DHT22;12539;48.808;11.292;2023-05-10T11:39:00;18.70;75.00
24402;DHT22;12539;48.808;11.292;2023-05-10T11:41:28;18.90;74.70
24402;DHT22;12539;48.808;11.292;2023-05-10T11:43:55;19.00;74.30
24402;DHT22;12539;48.808;11.292;2023-05-10T11:46:24;19.30;73.70
24402;DHT22;12539;48.808;11.292;2023-05-10T11:48:51;19.60;72.60
24402;DHT22;12539;48.808;11.292;2023-05-10T11:51:24;19.80;71.30
24402;DHT22;12539;48.808;11.292;2023-05-10T11:53:56;20.20;70.60
24402;DHT22;12539;48.808;11.292;2023-05-10T11:56:22;20.50;70.00
24402;DHT22;12539;48.808;11.292;2023-05-10T11:58:56;20.70;69.10
24402;DHT22;12539;48.808;11.292;2023-05-10T12:01:23;20.90;67.60
24402;DHT22;12539;48.808;11.292;2023-05-10T12:03:53;21.00;66.90
24402;DHT22;12539;48.808;11.292;2023-05-10T12:06:20;21.10;65.90
24402;DHT22;12539;48.808;11.292;2023-05-10T12:08:47;21.20;65.70
24402;DHT22;12539;48.808;11.292;2023-05-10T12:11:14;21.40;65.80
24402;DHT22;12539;48.808;11.292;2023-05-10T12:13:42;21.50;65.70
24402;DHT22;12539;48.808;11.292;2023-05-10T12:16:19;21.70;65.40
24402;DHT22;12539;48.808;11.292;2023-05-10T12:18:48;21.80;64.50
24402;DHT22;12539;48.808;11.292;2023-05-10T12:21:15;21.80;64.40
24402;DHT22;12539;48.808;11.292;2023-05-10T12:23:41;21.70;63.80
24402;DHT22;12539;48.808;11.292;2023-05-10T12:26:10;21.60;64.40
24402;DHT22;12539;48.808;11.292;2023-05-10T12:28:37;21.30;63.70
24402;DHT22;12539;48.808;11.292;2023-05-10T12:31:03;21.00;64.50
24402;DHT22;12539;48.808;11.292;2023-05-10T12:36:05;20.40;66.80
24402;DHT22;12539;48.808;11.292;2023-05-10T12:38:36;20.00;69.90
24402;DHT22;12539;48.808;11.292;2023-05-10T12:41:05;19.60;72.70
24402;DHT22;12539;48.808;11.292;2023-05-10T12:43:32;19.00;76.30
24402;DHT22;12539;48.808;11.292;2023-05-10T12:45:58;18.50;80.00
24402;DHT22;12539;48.808;11.292;2023-05-10T12:48:29;18.00;82.90
24402;DHT22;12539;48.808;11.292;2023-05-10T12:50:56;17.60;85.60
24402;DHT22;12539;48.808;11.292;2023-05-10T12:53:22;17.30;88.00
24402;DHT22;12539;48.808;11.292;2023-05-10T12:55:48;17.00;90.20
24402;DHT22;12539;48.808;11.292;2023-05-10T12:58:14;16.80;91.00
24402;DHT22;12539;48.808;11.292;2023-05-10T13:00:39;16.60;92.00
24402;DHT22;12539;48.808;11.292;2023-05-10T13:03:05;16.40;93.00
24402;DHT22;12539;48.808;11.292;2023-05-10T13:05:32;16.40;93.80
24402;DHT22;12539;48.808;11.292;2023-05-10T13:07:58;16.30;94.90
24402;DHT22;12539;48.808;11.292;2023-05-10T13:10:24;16.30;96.10
24402;DHT22;12539;48.808;11.292;2023-05-10T13:12:50;16.30;96.90
24402;DHT22;12539;48.808;11.292;2023-05-10T13:15:16;16.40;97.70
24402;DHT22;12539;48.808;11.292;2023-05-10T13:17:42;16.40;97.90
24402;DHT22;12539;48.808;11.292;2023-05-10T13:20:09;16.40;98.20
24402;DHT22;12539;48.808;11.292;2023-05-10T13:22:35;16.50;98.70
24402;DHT22;12539;48.808;11.292;2023-05-10T13:25:01;16.60;98.80
24402;DHT22;12539;48.808;11.292;2023-05-10T13:27:27;16.70;98.50
24402;DHT22;12539;48.808;11.292;2023-05-10T13:29:53;16.70;98.80
24402;DHT22;12539;48.808;11.292;2023-05-10T13:32:18;16.80;98.90
24402;DHT22;12539;48.808;11.292;2023-05-10T13:34:44;16.90;99.20
24402;DHT22;12539;48.808;11.292;2023-05-10T13:37:10;17.00;99.50
24402;DHT22;12539;48.808;11.292;2023-05-10T13:39:36;17.10;99.50
24402;DHT22;12539;48.808;11.292;2023-05-10T13:42:03;17.20;99.40
24402;DHT22;12539;48.808;11.292;2023-05-10T13:44:29;17.20;99.60
24402;DHT22;12539;48.808;11.292;2023-05-10T13:46:56;17.30;99.80
24402;DHT22;12539;48.808;11.292;2023-05-10T13:49:22;17.30;99.80
24402;DHT22;12539;48.808;11.292;2023-05-10T13:51:48;17.30;99.90
24402;DHT22;12539;48.808;11.292;2023-05-10T13:54:13;17.20;99.90
24402;DHT22;12539;48.808;11.292;2023-05-10T13:56:41;17.10;99.90
24402;DHT22;12539;48.808;11.292;2023-05-10T13:59:07;16.90;99.90
24402;DHT22;12539;48.808;11.292;2023-05-10T14:01:33;16.40;99.90
24402;DHT22;12539;48.808;11.292;2023-05-10T14:03:59;16.00;99.90
24402;DHT22;12539;48.808;11.292;2023-05-10T14:06:25;15.70;99.90
24402;DHT22;12539;48.808;11.292;2023-05-10T14:08:53;15.50;99.90
24402;DHT22;12539;48.808;11.292;2023-05-10T14:11:19;15.30;99.90
24402;DHT22;12539;48.808;11.292;2023-05-10T14:13:45;15.20;99.90
24402;DHT22;12539;48.808;11.292;2023-05-10T14:16:11;15.10;99.90
24402;DHT22;12539;48.808;11.292;2023-05-10T14:18:37;15.10;99.90
24402;DHT22;12539;48.808;11.292;2023-05-10T14:21:03;15.00;99.90
24402;DHT22;12539;48.808;11.292;2023-05-10T14:23:29;14.90;99.90
24402;DHT22;12539;48.808;11.292;2023-05-10T14:25:55;14.90;99.90
24402;DHT22;12539;48.808;11.292;2023-05-10T14:28:21;14.80;99.90
24402;DHT22;12539;48.808;11.292;2023-05-10T14:30:48;14.70;99.90
24402;DHT22;12539;48.808;11.292;2023-05-10T14:33:13;14.70;99.90
24402;DHT22;12539;48.808;11.292;2023-05-10T14:35:39;14.70;99.90
24402;DHT22;12539;48.808;11.292;2023-05-10T14:38:05;14.60;99.90
24402;DHT22;12539;48.808;11.292;2023-05-10T14:40:30;14.60;99.90
24402;DHT22;12539;48.808;11.292;2023-05-10T14:42:56;14.60;99.90
24402;DHT22;12539;48.808;11.292;2023-05-10T14:45:22;14.60;99.90
24402;DHT22;12539;48.808;11.292;2023-05-10T14:47:49;14.50;99.90
24402;DHT22;12539;48.808;11.292;2023-05-10T14:50:15;14.60;99.90
24402;DHT22;12539;48.808;11.292;2023-05-10T14:52:42;14.60;99.90
24402;DHT22;12539;48.808;11.292;2023-05-10T14:55:08;14.60;99.90
24402;DHT22;12539;48.808;11.292;2023-05-10T14:57:34;14.70;99.90
24402;DHT22;12539;48.808;11.292;2023-05-10T15:00:00;14.70;99.90
24402;DHT22;12539;48.808;11.292;2023-05-10T15:02:25;14.80;99.90
24402;DHT22;12539;48.808;11.292;2023-05-10T15:04:51;15.00;99.90
24402;DHT22;12539;48.808;11.292;2023-05-10T15:07:17;15.00;99.90
24402;DHT22;12539;48.808;11.292;2023-05-10T15:09:44;15.10;99.90
24402;DHT22;12539;48.808;11.292;2023-05-10T15:12:10;15.20;99.90
24402;DHT22;12539;48.808;11.292;2023-05-10T15:14:36;15.30;99.90
24402;DHT22;12539;48.808;11.292;2023-05-10T15:17:02;15.40;99.90
24402;DHT22;12539;48.808;11.292;2023-05-10T15:19:27;15.50;99.90
24402;DHT22;12539;48.808;11.292;2023-05-10T15:21:55;15.50;99.90
24402;DHT22;12539;48.808;11.292;2023-05-10T15:24:21;15.60;99.90
24402;DHT22;12539;48.808;11.292;2023-05-10T15:26:47;15.70;99.90
24402;DHT22;12539;48.808;11.292;2023-05-10T15:29:13;15.70;99.90
24402;DHT22;12539;48.808;11.292;2023-05-10T15:31:46;15.80;99.90
24402;DHT22;12539;48.808;11.292;2023-05-10T15:34:13;15.90;99.90
24402;DHT22;12539;48.808;11.292;2023-05-10T15:36:38;16.00;99.90
24402;DHT22;12539;48.808;11.292;2023-05-10T15:39:04;15.90;99.90
24402;DHT22;12539;48.808;11.292;2023-05-10T15:41:30;16.00;99.90
24402;DHT22;12539;48.808;11.292;2023-05-10T15:43:57;15.90;99.90
24402;DHT22;12539;48.808;11.292;2023-05-10T15:46:25;15.90;99.90
24402;DHT22;12539;48.808;11.292;2023-05-10T15:48:51;15.80;99.90
24402;DHT22;12539;48.808;11.292;2023-05-10T15:51:17;15.80;99.90
24402;DHT22;12539;48.808;11.292;2023-05-10T15:53:44;15.80;99.90
24402;DHT22;12539;48.808;11.292;2023-05-10T15:56:10;15.80;99.90
24402;DHT22;12539;48.808;11.292;2023-05-10T15:58:37;15.70;99.90
24402;DHT22;12539;48.808;11.292;2023-05-10T16:01:03;15.70;99.90
24402;DHT22;12539;48.808;11.292;2023-05-10T16:03:30;15.70;99.90
24402;DHT22;12539;48.808;11.292;2023-05-10T16:05:56;15.70;99.90
24402;DHT22;12539;48.808;11.292;2023-05-10T16:08:22;15.70;99.90